Time;durP1;ratioP1;P1;durP2;ratioP2;P2;SDS_P1;SDS_P2;PMS_P1;PMS_P2;Temp;Humidity;BMP_temperature;BMP_pressure;BME280_temperature;BME280_humidity;BME280_pressure;Samples;Min_cycle;Max_cycle;Signal;HPM_P1;HPM_P2
2021/11/27 07:00:30;;;;;;;14.63;1.63;;;5.30;99.90;;;;;;6057003;23;20672;31
2021/11/27 07:02:57;;;;;;;16.73;2.38;;;5.30;99.90;;;;;;6058364;23;20071;-83
2021/11/27 07:05:25;;;;;;;16.15;2.95;;;5.40;99.90;;;;;;6064244;23;20465;-82
2021/11/27 07:07:52;;;;;;;28.52;2.58;;;5.50;99.90;;;;;;6065442;23;20074;-83
2021/11/27 07:10:19;;;;;;;31.25;3.72;;;5.60;99.90;;;;;;6035207;23;20026;-79
2021/11/27 07:12:45;;;;;;;31.77;3.80;;;5.70;99.90;;;;;;6064074;23;20019;-81
2021/11/27 07:15:12;;;;;;;28.13;3.40;;;5.70;99.90;;;;;;6063421;23;20342;-80
2021/11/27 07:17:40;;;;;;;17.17;2.85;;;5.80;99.90;;;;;;6064068;23;20027;-79
2021/11/27 07:20:09;;;;;;;26.65;4.20;;;5.90;99.90;;;;;;6063092;23;20023;-79
2021/11/27 07:22:37;;;;;;;32.40;3.80;;;6.00;99.90;;;;;;6062857;23;20022;-81
2021/11/27 07:25:06;;;;;;;29.65;3.10;;;6.00;99.90;;;;;;6063014;23;20049;-80
2021/11/27 07:27:34;;;;;;;25.98;4.03;;;6.10;99.90;;;;;;6063876;23;20026;-80
2021/11/27 07:30:01;;;;;;;23.20;2.97;;;6.20;99.90;;;;;;6064241;23;20505;-79
2021/11/27 07:32:27;;;;;;;22.85;3.10;;;6.20;99.90;;;;;;6062403;23;20025;-79
2021/11/27 07:34:54;;;;;;;28.23;4.15;;;6.20;99.90;;;;;;6062470;23;20477;-80
2021/11/27 07:37:21;;;;;;;29.05;3.47;;;6.30;99.90;;;;;;6062020;23;20103;-81
2021/11/27 07:39:48;;;;;;;26.73;3.97;;;6.30;99.90;;;;;;6062561;23;20076;-78
2021/11/27 07:42:15;;;;;;;24.88;3.05;;;6.30;99.90;;;;;;6061877;23;20474;-79
2021/11/27 07:44:42;;;;;;;27.65;3.83;;;6.40;99.90;;;;;;6062792;23;20019;-81
2021/11/27 07:47:09;;;;;;;22.77;3.47;;;6.40;99.90;;;;;;6062444;23;20022;-79
2021/11/27 07:49:36;;;;;;;24.85;3.90;;;6.40;99.90;;;;;;6062714;23;20015;-80
2021/11/27 07:52:03;;;;;;;32.30;4.13;;;6.40;99.90;;;;;;6062553;23;20046;-81
2021/11/27 07:54:30;;;;;;;28.80;4.97;;;6.40;99.90;;;;;;6036994;23;20026;-79
2021/11/27 07:56:57;;;;;;;30.88;3.72;;;6.50;99.90;;;;;;6061896;23;20019;-79
2021/11/27 07:59:25;;;;;;;26.55;4.03;;;6.60;99.90;;;;;;6062171;23;20034;-80
2021/11/27 08:01:51;;;;;;;37.20;3.40;;;6.50;99.90;;;;;;6062428;23;20026;-80
2021/11/27 08:04:20;;;;;;;34.08;4.35;;;6.50;99.90;;;;;;6061619;23;20037;-80
2021/11/27 08:06:47;;;;;;;39.08;4.25;;;6.60;99.90;;;;;;6062729;23;20026;-79
2021/11/27 08:09:14;;;;;;;32.97;5.68;;;6.60;99.90;;;;;;6060594;23;20082;-80
2021/11/27 08:11:40;;;;;;;32.50;4.05;;;6.70;99.90;;;;;;6062680;23;20421;-80
2021/11/27 08:14:07;;;;;;;18.38;2.60;;;6.70;99.90;;;;;;6061636;23;20023;-79
2021/11/27 08:16:34;;;;;;;23.58;2.40;;;6.50;99.90;;;;;;6037628;23;20018;-80
2021/11/27 08:19:01;;;;;;;20.25;2.80;;;6.30;99.90;;;;;;6062229;23;20031;-80
2021/11/27 08:21:29;;;;;;;20.38;2.80;;;6.20;99.90;;;;;;6061565;23;20403;-81
2021/11/27 08:23:56;;;;;;;23.10;3.00;;;6.10;99.90;;;;;;6062393;23;20486;-79
2021/11/27 08:26:23;;;;;;;28.63;3.42;;;6.10;99.90;;;;;;6062018;23;20107;-80
2021/11/27 08:28:50;;;;;;;22.42;3.53;;;6.00;99.90;;;;;;6062213;23;20023;-80
2021/11/27 08:31:18;;;;;;;17.65;2.97;;;6.00;99.90;;;;;;6061371;23;20026;-78
2021/11/27 08:33:45;;;;;;;26.17;2.88;;;6.00;99.90;;;;;;6062496;23;20049;-78
2021/11/27 08:36:12;;;;;;;24.92;3.05;;;5.80;99.90;;;;;;6061626;23;20027;-79
2021/11/27 08:38:39;;;;;;;28.27;3.55;;;5.80;99.90;;;;;;6036171;23;20521;-79
2021/11/27 08:41:08;;;;;;;23.73;3.03;;;5.70;99.90;;;;;;6057623;23;20427;-78
2021/11/27 08:43:38;;;;;;;38.90;4.88;;;5.70;99.90;;;;;;6056894;23;20018;-78
2021/11/27 08:46:06;;;;;;;25.00;3.83;;;5.70;99.90;;;;;;6056800;23;20079;-79
2021/11/27 08:48:37;;;;;;;31.50;3.83;;;5.70;99.90;;;;;;6057613;23;20018;-79
2021/11/27 08:51:10;;;;;;;24.63;4.07;;;5.70;99.90;;;;;;6057358;23;20083;-79
2021/11/27 08:53:38;;;;;;;26.50;4.10;;;5.80;99.90;;;;;;6057998;23;20027;-78
2021/11/27 08:56:07;;;;;;;24.38;4.28;;;5.90;99.90;;;;;;6056821;23;20023;-78
2021/11/27 08:58:35;;;;;;;31.15;4.30;;;6.10;99.90;;;;;;6056755;23;20878;-77
2021/11/27 09:01:04;;;;;;;29.38;3.78;;;6.20;99.90;;;;;;6030526;23;20079;-78
2021/11/27 09:03:32;;;;;;;30.48;3.70;;;6.30;99.90;;;;;;6055478;23;20027;-79
2021/11/27 09:06:00;;;;;;;31.45;4.38;;;6.30;99.90;;;;;;6057501;23;20037;-79
2021/11/27 09:08:28;;;;;;;28.90;3.70;;;6.30;99.90;;;;;;6057143;23;20022;-80
2021/11/27 09:10:56;;;;;;;20.35;3.15;;;6.30;99.90;;;;;;6057171;23;20019;-78
2021/11/27 09:13:24;;;;;;;17.10;3.40;;;6.30;99.90;;;;;;6055935;23;20026;-79
2021/11/27 09:15:51;;;;;;;20.48;3.05;;;6.20;99.90;;;;;;6056947;23;20259;-78
2021/11/27 09:18:18;;;;;;;14.73;2.17;;;6.10;99.90;;;;;;6056672;23;20037;-78
2021/11/27 09:20:45;;;;;;;18.30;3.17;;;6.00;99.90;;;;;;6058130;23;20023;-79
2021/11/27 09:23:11;;;;;;;23.88;4.15;;;6.00;99.90;;;;;;6058062;23;20031;-79
2021/11/27 09:25:39;;;;;;;32.13;4.35;;;6.00;99.90;;;;;;6058529;23;20093;-79
2021/11/27 09:28:06;;;;;;;22.15;3.25;;;6.10;99.90;;;;;;6058816;23;20079;-78
2021/11/27 09:30:33;;;;;;;25.42;3.88;;;6.20;99.90;;;;;;6034022;23;20031;-77
2021/11/27 09:32:59;;;;;;;18.77;3.08;;;6.30;99.90;;;;;;6046671;23;20027;-77
2021/11/27 09:35:27;;;;;;;25.70;3.97;;;6.40;99.90;;;;;;6058136;23;20075;-79
2021/11/27 09:37:54;;;;;;;29.67;4.20;;;6.50;99.90;;;;;;6059106;23;20372;-78
2021/11/27 09:40:21;;;;;;;25.67;3.90;;;6.60;99.90;;;;;;6057328;23;20063;-79
2021/11/27 09:42:54;;;;;;;35.30;4.20;;;6.70;99.90;;;;;;6059004;23;20050;-78
2021/11/27 09:45:26;;;;;;;32.25;5.18;;;6.80;99.90;;;;;;6058436;23;20095;-79
2021/11/27 09:47:55;;;;;;;35.47;4.85;;;6.90;99.90;;;;;;6059281;23;20031;-78
2021/11/27 09:50:23;;;;;;;29.63;5.25;;;6.90;99.90;;;;;;6056800;23;20086;-78
2021/11/27 09:52:50;;;;;;;30.48;4.55;;;6.90;99.90;;;;;;6058511;23;20031;-78
2021/11/27 09:55:18;;;;;;;36.97;4.93;;;7.00;99.90;;;;;;6032468;23;20997;-79
2021/11/27 09:57:47;;;;;;;31.08;4.70;;;7.10;99.90;;;;;;6060169;23;20019;-79
2021/11/27 10:00:15;;;;;;;;;;;7.20;99.90;;;;;;6058563;23;20059;-79
2021/11/27 10:02:44;;;;;;;35.38;5.13;;;7.20;99.90;;;;;;6057705;23;19921;-78
2021/11/27 10:05:16;;;;;;;58.45;5.07;;;7.30;99.90;;;;;;6057755;23;20026;-77
2021/11/27 10:07:43;;;;;;;37.33;5.30;;;7.40;99.90;;;;;;6033671;23;20859;-78
2021/11/27 10:10:12;;;;;;;31.08;4.90;;;7.50;99.90;;;;;;6058296;23;20083;-79
2021/11/27 10:12:41;;;;;;;42.40;4.80;;;7.50;99.90;;;;;;6058485;23;20497;-78
2021/11/27 10:15:09;;;;;;;36.22;4.63;;;7.50;99.90;;;;;;6058155;23;20038;-77
2021/11/27 10:17:36;;;;;;;40.25;4.68;;;7.60;99.90;;;;;;6059056;23;20086;-78
2021/11/27 10:20:05;;;;;;;32.70;5.30;;;7.60;99.90;;;;;;6059244;23;20090;-77
2021/11/27 10:22:38;;;;;;;32.05;4.80;;;7.60;99.90;;;;;;6058645;23;20019;-78
2021/11/27 10:25:27;;;;;;;32.67;6.32;;;7.50;99.90;;;;;;6058777;23;20510;-79
2021/11/27 10:28:14;;;;;;;39.65;4.43;;;7.60;99.90;;;;;;6059071;23;20525;-78
2021/11/27 10:30:48;;;;;;;35.75;4.65;;;7.60;99.90;;;;;;6059034;23;20553;-79
2021/11/27 10:33:17;;;;;;;29.02;3.45;;;7.80;99.90;;;;;;6057522;23;20026;-79
2021/11/27 10:35:52;;;;;;;21.50;3.92;;;7.90;99.90;;;;;;6058632;23;20027;-79
2021/11/27 10:38:20;;;;;;;26.88;4.80;;;7.80;99.90;;;;;;6058173;23;20087;-78
2021/11/27 10:40:58;;;;;;;28.10;3.72;;;7.60;99.90;;;;;;6056960;23;20027;-79
2021/11/27 10:43:26;;;;;;;32.35;4.13;;;7.60;99.90;;;;;;6033235;23;20022;-78
2021/11/27 10:46:25;;;;;;;32.72;5.00;;;7.70;99.90;;;;;;6057141;23;20360;-79
2021/11/27 10:48:51;;;;;;;33.63;4.80;;;7.70;99.90;;;;;;6059029;23;20702;-81
2021/11/27 10:51:22;;;;;;;32.63;4.45;;;7.70;99.90;;;;;;6057135;23;20023;-79
2021/11/27 10:53:58;;;;;;;33.65;4.55;;;7.60;99.90;;;;;;6033495;23;20540;-79
2021/11/27 10:56:39;;;;;;;31.48;3.80;;;7.70;99.90;;;;;;6058216;23;20098;-78
2021/11/27 10:59:07;;;;;;;31.08;4.15;;;7.80;99.90;;;;;;6057586;23;20066;-79
2021/11/27 11:02:01;;;;;;;19.58;3.10;;;7.80;99.90;;;;;;6058403;23;20074;-78
2021/11/27 11:04:29;;;;;;;34.95;5.13;;;7.80;99.90;;;;;;6058655;23;20086;-80
2021/11/27 11:07:21;;;;;;;31.23;3.72;;;7.70;99.90;;;;;;6059212;23;20015;-81
2021/11/27 11:10:08;;;;;;;33.17;4.90;;;7.70;99.90;;;;;;6059452;23;20078;-79
2021/11/27 11:13:09;;;;;;;21.40;3.75;;;7.80;99.90;;;;;;6058221;23;20077;-80
2021/11/27 11:15:38;;;;;;;31.88;4.97;;;7.90;99.90;;;;;;6058133;23;20022;-81
2021/11/27 11:18:34;;;;;;;22.75;4.15;;;7.90;99.90;;;;;;6059017;23;20078;-81
2021/11/27 11:21:05;;;;;;;29.73;4.10;;;7.90;99.90;;;;;;6027404;23;20102;-79
2021/11/27 11:23:33;;;;;;;22.02;3.85;;;7.90;99.90;;;;;;6026668;23;20030;-79
2021/11/27 11:26:10;;;;;;;30.58;4.80;;;7.90;99.90;;;;;;6027509;23;20031;-80
2021/11/27 11:28:41;;;;;;;31.92;4.50;;;8.00;99.90;;;;;;6027060;23;20027;-78
2021/11/27 11:31:11;;;;;;;29.63;3.60;;;8.00;99.90;;;;;;6025547;23;20079;-80
2021/11/27 11:33:41;;;;;;;32.17;3.72;;;8.00;99.90;;;;;;6024382;23;20024;-78
2021/11/27 11:36:11;;;;;;;19.33;3.42;;;8.10;99.90;;;;;;6023358;23;20077;-79
2021/11/27 11:38:47;;;;;;;21.70;3.17;;;8.10;99.90;;;;;;6025931;23;20023;-79
2021/11/27 11:41:17;;;;;;;21.70;3.35;;;8.10;99.90;;;;;;6024732;23;20091;-79
2021/11/27 11:43:44;;;;;;;22.13;3.25;;;8.10;99.90;;;;;;6026101;23;20030;-81
2021/11/27 11:46:12;;;;;;;26.85;3.42;;;8.10;99.90;;;;;;6026091;23;20027;-81
2021/11/27 11:48:48;;;;;;;22.33;3.00;;;8.20;99.90;;;;;;6026883;23;20023;-79
2021/11/27 11:51:49;;;;;;;24.15;3.80;;;8.30;99.90;;;;;;6023227;23;20019;-79
2021/11/27 11:54:17;;;;;;;21.08;3.35;;;8.30;99.90;;;;;;6022604;23;20027;-79
2021/11/27 11:56:45;;;;;;;16.60;2.88;;;8.20;99.90;;;;;;6031841;23;20023;-79
2021/11/27 11:59:20;;;;;;;24.95;3.10;;;8.20;99.90;;;;;;6056538;23;20031;-80
2021/11/27 12:02:12;;;;;;;26.05;4.25;;;8.20;99.90;;;;;;6057542;23;20062;-79
2021/11/27 12:04:59;;;;;;;25.17;3.22;;;8.30;99.90;;;;;;6057325;23;20037;-82
2021/11/27 12:07:44;;;;;;;19.30;3.78;;;8.40;99.90;;;;;;6056793;23;20075;-79
2021/11/27 12:10:30;;;;;;;27.80;3.85;;;8.30;99.90;;;;;;6056743;23;20087;-77
2021/11/27 12:13:05;;;;;;;21.23;3.28;;;8.40;99.90;;;;;;6032236;23;20044;-78
2021/11/27 12:15:43;;;;;;;25.52;3.72;;;8.40;99.90;;;;;;6056789;23;20015;-78
2021/11/27 12:18:12;;;;;;;28.60;3.33;;;8.40;99.90;;;;;;6057642;23;20090;-77
2021/11/27 12:21:01;;;;;;;22.58;4.47;;;8.40;99.90;;;;;;6058356;23;20037;-78
2021/11/27 12:26:14;;;;;;;26.48;5.20;;;8.20;99.90;;;;;;6056554;23;20051;-78
2021/11/27 12:28:50;;;;;;;20.70;3.85;;;8.10;99.90;;;;;;6055250;23;20023;-79
2021/11/27 12:31:23;;;;;;;23.05;3.58;;;8.10;99.90;;;;;;6032501;23;20037;-78
2021/11/27 12:33:57;;;;;;;25.73;4.22;;;8.00;99.90;;;;;;6058354;23;20034;-78
2021/11/27 12:36:24;;;;;;;25.83;4.15;;;7.80;99.90;;;;;;6056049;23;20067;-78
2021/11/27 12:39:16;;;;;;;25.38;3.08;;;7.70;99.90;;;;;;6058200;23;20042;-78
2021/11/27 12:41:47;;;;;;;19.80;3.10;;;7.60;99.90;;;;;;6057008;23;20027;-78
2021/11/27 12:44:27;;;;;;;27.17;3.88;;;7.60;99.90;;;;;;6055326;23;20105;-78
2021/11/27 12:47:23;;;;;;;;;;;7.50;99.90;;;;;;6057305;23;20729;-78
2021/11/27 12:49:51;;;;;;;27.17;4.07;;;7.40;99.90;;;;;;6057025;23;19925;-77
2021/11/27 12:52:20;;;;;;;33.33;3.80;;;7.40;99.90;;;;;;6056143;23;20026;-78
2021/11/27 12:54:54;;;;;;;33.08;3.90;;;7.50;99.90;;;;;;6055879;23;20474;-79
2021/11/27 12:57:23;;;;;;;29.30;4.00;;;7.60;99.90;;;;;;6056196;23;20031;-78
2021/11/27 13:00:18;;;;;;;26.15;3.80;;;7.50;99.90;;;;;;6057065;23;20533;-78
2021/11/27 13:03:03;;;;;;;23.60;3.45;;;7.50;99.90;;;;;;6049217;23;20026;-77
2021/11/27 13:05:35;;;;;;;22.40;3.42;;;7.50;99.90;;;;;;6054701;23;20083;-78
2021/11/27 13:08:05;;;;;;;19.63;2.90;;;7.60;99.90;;;;;;6056424;23;20023;-78
2021/11/27 13:10:33;;;;;;;27.20;3.45;;;7.60;99.90;;;;;;6057086;23;20022;-79
2021/11/27 13:13:22;;;;;;;22.02;3.65;;;7.60;99.90;;;;;;6032001;23;20031;-79
2021/11/27 13:15:52;;;;;;;33.30;4.00;;;7.60;99.90;;;;;;6057166;23;20023;-79
2021/11/27 13:18:22;;;;;;;32.05;3.75;;;7.60;99.90;;;;;;6056688;23;20034;-80
2021/11/27 13:21:06;;;;;;;23.73;4.28;;;7.70;99.90;;;;;;6056008;23;20501;-78
2021/11/27 13:23:36;;;;;;;23.27;3.45;;;7.70;99.90;;;;;;6056458;23;20075;-78
2021/11/27 13:26:07;;;;;;;19.02;3.63;;;7.70;99.90;;;;;;6057629;23;20114;-79
2021/11/27 13:28:59;;;;;;;18.60;2.58;;;7.70;99.90;;;;;;6057543;23;20022;-78
2021/11/27 13:31:38;;;;;;;19.35;2.80;;;7.70;99.90;;;;;;6056902;23;20030;-79
2021/11/27 13:34:13;;;;;;;27.98;3.20;;;7.70;99.90;;;;;;6057312;23;20035;-79
2021/11/27 13:36:57;;;;;;;15.68;2.88;;;7.70;99.90;;;;;;6058424;23;20456;-79
2021/11/27 13:39:32;;;;;;;18.13;3.42;;;7.80;99.90;;;;;;6057656;23;20034;-78
2021/11/27 13:42:11;;;;;;;18.33;2.97;;;7.90;99.90;;;;;;6057944;23;20114;-79
2021/11/27 13:44:40;;;;;;;20.67;3.50;;;7.90;99.90;;;;;;6057998;23;20023;-77
2021/11/27 13:47:11;;;;;;;16.88;3.00;;;8.10;99.90;;;;;;6057187;23;20071;-79
2021/11/27 13:49:40;;;;;;;17.83;2.50;;;8.20;99.90;;;;;;6057262;23;20053;-78
2021/11/27 13:52:22;;;;;;;12.80;2.75;;;8.20;99.90;;;;;;6056695;23;20026;-78
2021/11/27 13:54:54;;;;;;;17.85;2.10;;;8.30;99.90;;;;;;6057639;23;20019;-76
2021/11/27 13:57:24;;;;;;;18.27;2.60;;;8.20;99.90;;;;;;6055100;23;20030;-79
2021/11/27 13:59:51;;;;;;;17.65;2.70;;;8.20;99.90;;;;;;6057493;23;20026;-79
2021/11/27 14:02:19;;;;;;;17.05;2.60;;;8.20;99.90;;;;;;6055584;23;20026;-77
2021/11/27 14:04:56;;;;;;;15.93;2.60;;;8.10;99.90;;;;;;6056922;23;20465;-77
2021/11/27 14:07:23;;;;;;;22.08;3.70;;;8.10;99.90;;;;;;6032479;23;20023;-79
2021/11/27 14:09:56;;;;;;;14.50;2.60;;;8.10;99.90;;;;;;6059132;23;20084;-79
2021/11/27 14:12:27;;;;;;;18.63;3.30;;;8.20;99.90;;;;;;6058853;23;20031;-80
2021/11/27 14:14:56;;;;;;;19.15;2.38;;;8.30;99.90;;;;;;6059670;23;20022;-80
2021/11/27 14:17:23;;;;;;;9.85;2.00;;;8.20;99.90;;;;;;6058558;23;20503;-79
2021/11/27 14:19:50;;;;;;;15.05;2.80;;;8.20;99.90;;;;;;6059423;23;20154;-80
2021/11/27 14:22:17;;;;;;;18.70;3.25;;;8.00;99.90;;;;;;6058586;23;20493;-79
2021/11/27 14:24:44;;;;;;;20.10;3.03;;;7.90;99.90;;;;;;6059106;23;20026;-78
2021/11/27 14:27:11;;;;;;;13.52;2.13;;;7.80;99.90;;;;;;6058518;23;20034;-78
2021/11/27 14:29:38;;;;;;;19.48;2.47;;;7.90;99.90;;;;;;6058564;23;20023;-78
2021/11/27 14:32:18;;;;;;;16.25;3.00;;;7.90;99.90;;;;;;6057310;23;20422;-76
2021/11/27 14:34:47;;;;;;;15.93;2.85;;;7.80;99.90;;;;;;6057676;23;20022;-79
2021/11/27 14:37:15;;;;;;;14.82;2.15;;;7.80;99.90;;;;;;6057108;23;20030;-78
2021/11/27 14:39:42;;;;;;;18.40;2.80;;;7.80;99.90;;;;;;6056893;23;20026;-78
2021/11/27 14:42:13;;;;;;;14.18;2.10;;;7.80;99.90;;;;;;6056601;23;20035;-81
2021/11/27 14:44:40;;;;;;;17.92;2.45;;;7.80;99.90;;;;;;6057754;23;20027;-79
2021/11/27 14:47:10;;;;;;;18.95;2.40;;;7.80;99.90;;;;;;6057644;23;20027;-78
2021/11/27 14:49:38;;;;;;;15.13;2.15;;;7.70;99.90;;;;;;6040029;23;20023;-79
2021/11/27 14:52:24;;;;;;;24.67;3.30;;;7.70;99.90;;;;;;6054833;23;20023;-78
2021/11/27 14:55:01;;;;;;;15.68;2.65;;;7.70;99.90;;;;;;6058260;23;20039;-81
2021/11/27 14:57:34;;;;;;;16.17;2.45;;;7.70;99.90;;;;;;6058219;23;20481;-80
2021/11/27 15:00:15;;;;;;;15.07;2.10;;;7.70;99.90;;;;;;6058379;23;20082;-80
2021/11/27 15:02:48;;;;;;;12.07;1.98;;;7.60;99.90;;;;;;6057597;23;20079;-80
2021/11/27 15:05:16;;;;;;;16.67;2.28;;;7.60;99.90;;;;;;6032757;23;20482;-79
2021/11/27 15:07:44;;;;;;;13.87;2.27;;;7.60;99.90;;;;;;6058201;23;20026;-80
2021/11/27 15:10:15;;;;;;;12.43;2.27;;;7.60;99.90;;;;;;6057795;23;20031;-80
2021/11/27 15:12:43;;;;;;;10.77;2.58;;;7.50;99.90;;;;;;6059733;23;20247;-81
2021/11/27 15:15:12;;;;;;;14.85;2.70;;;7.50;99.90;;;;;;6057676;23;20086;-80
2021/11/27 15:17:42;;;;;;;;;;;7.50;99.90;;;;;;6059084;23;20034;-80
2021/11/27 15:20:11;;;;;;;12.13;2.28;;;7.40;99.90;;;;;;6057920;23;19981;-80
2021/11/27 15:22:38;;;;;;;11.63;2.28;;;7.30;99.90;;;;;;6033274;23;20042;-78
2021/11/27 15:25:08;;;;;;;16.58;3.05;;;7.30;99.90;;;;;;6057912;23;20034;-76
2021/11/27 15:27:36;;;;;;;13.88;2.13;;;7.20;99.90;;;;;;6060087;23;20019;-79
2021/11/27 15:30:04;;;;;;;17.50;2.70;;;7.20;99.90;;;;;;6063591;23;20030;-79
2021/11/27 15:32:32;;;;;;;18.70;2.70;;;7.20;99.90;;;;;;6063853;23;20037;-78
2021/11/27 15:34:59;;;;;;;17.52;2.70;;;7.10;99.90;;;;;;6063247;23;20019;-78
2021/11/27 15:37:26;;;;;;;15.13;2.47;;;7.20;99.90;;;;;;6062736;23;20042;-78
2021/11/27 15:39:53;;;;;;;23.15;3.92;;;7.20;99.90;;;;;;6063553;23;20489;-78
2021/11/27 15:42:22;;;;;;;17.95;2.42;;;7.10;99.90;;;;;;6063021;23;20087;-78
2021/11/27 15:44:49;;;;;;;12.35;2.17;;;7.00;99.90;;;;;;6063431;23;20485;-80
2021/11/27 15:47:18;;;;;;;16.63;3.10;;;7.00;99.90;;;;;;6063138;23;20027;-79
2021/11/27 15:49:45;;;;;;;26.17;3.00;;;6.90;99.90;;;;;;6063681;23;20075;-80
2021/11/27 15:52:12;;;;;;;18.00;2.83;;;6.80;99.90;;;;;;6062815;23;20026;-77
2021/11/27 15:54:39;;;;;;;22.02;3.40;;;6.80;99.90;;;;;;6064115;23;20327;-78
2021/11/27 15:57:07;;;;;;;21.15;2.88;;;6.70;99.90;;;;;;6063175;23;20090;-78
2021/11/27 15:59:34;;;;;;;;;;;6.70;99.90;;;;;;6063562;23;20018;-80
2021/11/27 16:02:01;;;;;;;17.95;2.30;;;6.70;99.90;;;;;;6062829;23;19964;-79
2021/11/27 16:04:28;;;;;;;19.55;2.70;;;6.70;99.90;;;;;;6062869;23;20015;-80
2021/11/27 16:06:55;;;;;;;19.20;2.50;;;6.60;99.90;;;;;;6063314;23;20097;-80
2021/11/27 16:09:22;;;;;;;21.17;2.40;;;6.60;99.90;;;;;;6062464;23;20522;-80
2021/11/27 16:11:49;;;;;;;13.55;2.63;;;6.60;99.90;;;;;;6063768;23;20462;-81
2021/11/27 16:14:16;;;;;;;18.90;2.95;;;6.60;99.90;;;;;;6062606;23;20026;-79
2021/11/27 16:16:44;;;;;;;17.85;2.72;;;6.50;99.90;;;;;;6063395;23;20019;-79
2021/11/27 16:19:12;;;;;;;14.77;3.15;;;6.50;99.90;;;;;;5993847;23;20108;-82
2021/11/27 16:21:40;;;;;;;22.92;3.45;;;6.50;99.90;;;;;;6032792;23;20082;-80
2021/11/27 16:24:07;;;;;;;18.88;3.35;;;6.40;99.90;;;;;;6032993;23;20082;-78
2021/11/27 16:26:33;;;;;;;19.00;2.75;;;6.40;99.90;;;;;;6058679;23;20019;-78
2021/11/27 16:29:00;;;;;;;15.32;2.55;;;6.30;99.90;;;;;;6057871;23;20423;-78
2021/11/27 16:31:27;;;;;;;19.90;2.90;;;6.30;99.90;;;;;;6057342;23;20030;-77
2021/11/27 16:33:54;;;;;;;18.63;2.85;;;6.30;99.90;;;;;;6058260;23;20025;-78
2021/11/27 16:36:22;;;;;;;16.73;2.42;;;6.30;99.90;;;;;;6057497;23;20031;-77
2021/11/27 16:38:49;;;;;;;18.25;2.65;;;6.30;99.90;;;;;;6057204;23;20107;-78
2021/11/27 16:41:17;;;;;;;15.60;2.13;;;6.30;99.90;;;;;;6057519;23;20019;-77
2021/11/27 16:43:43;;;;;;;25.65;2.80;;;6.20;99.90;;;;;;6058074;23;20023;-79
2021/11/27 16:46:16;;;;;;;24.33;2.90;;;6.20;99.90;;;;;;6058320;23;20034;-76
2021/11/27 16:48:45;;;;;;;16.45;2.92;;;6.20;99.90;;;;;;6058745;23;20362;-77
2021/11/27 16:51:12;;;;;;;18.05;2.88;;;6.20;99.90;;;;;;6057283;23;20133;-78
2021/11/27 16:53:40;;;;;;;15.25;2.72;;;6.20;99.90;;;;;;6058236;23;20474;-76
2021/11/27 16:56:07;;;;;;;13.23;2.55;;;6.20;99.90;;;;;;6057670;23;20026;-78
2021/11/27 16:58:35;;;;;;;12.35;2.30;;;6.20;99.90;;;;;;6057672;23;20019;-78
2021/11/27 17:01:03;;;;;;;15.98;3.00;;;6.20;99.90;;;;;;6032838;23;20026;-79
2021/11/27 17:03:30;;;;;;;20.77;3.22;;;6.10;99.90;;;;;;6031680;23;20098;-80
2021/11/27 17:05:58;;;;;;;25.08;3.63;;;6.10;99.90;;;;;;6058437;23;20485;-78
2021/11/27 17:08:30;;;;;;;22.17;3.03;;;6.10;99.90;;;;;;6033235;23;20023;-79
2021/11/27 17:11:01;;;;;;;16.40;3.40;;;6.10;99.90;;;;;;6057332;23;20034;-80
2021/11/27 17:13:29;;;;;;;17.00;2.95;;;6.10;99.90;;;;;;6057055;23;20074;-79
2021/11/27 17:15:58;;;;;;;18.65;3.30;;;6.10;99.90;;;;;;6058456;23;20497;-79
2021/11/27 17:18:26;;;;;;;18.60;2.45;;;6.10;99.90;;;;;;6057662;23;20019;-81
2021/11/27 17:20:53;;;;;;;18.15;2.58;;;6.10;99.90;;;;;;6058181;23;20022;-79
2021/11/27 17:23:21;;;;;;;26.63;3.83;;;6.10;99.90;;;;;;6056859;23;20481;-79
2021/11/27 17:25:48;;;;;;;17.23;2.58;;;6.10;99.90;;;;;;6057539;23;20469;-80
2021/11/27 17:28:15;;;;;;;21.27;3.92;;;6.10;99.90;;;;;;6030138;23;20104;-79
2021/11/27 17:30:42;;;;;;;15.30;3.40;;;6.20;99.90;;;;;;6056037;23;20026;-79
2021/11/27 17:33:09;;;;;;;22.40;2.67;;;6.20;99.90;;;;;;6031621;23;20043;-78
2021/11/27 17:35:36;;;;;;;22.17;2.75;;;6.30;99.90;;;;;;6057007;23;20089;-80
2021/11/27 17:38:04;;;;;;;20.50;3.20;;;6.30;99.90;;;;;;6057907;23;20026;-79
2021/11/27 17:40:32;;;;;;;15.52;2.83;;;6.30;99.90;;;;;;6056328;23;20496;-78
2021/11/27 17:42:59;;;;;;;17.02;2.78;;;6.30;99.90;;;;;;6057591;23;20828;-77
2021/11/27 17:45:33;;;;;;;20.52;2.35;;;6.30;99.90;;;;;;6059237;23;20026;-78
2021/11/27 17:48:00;;;;;;;18.67;2.88;;;6.30;99.90;;;;;;6060447;23;20026;-78
2021/11/27 17:50:26;;;;;;;18.95;2.78;;;6.30;99.90;;;;;;6059226;23;20473;-78
2021/11/27 17:52:53;;;;;;;21.60;3.53;;;6.30;99.90;;;;;;6034685;23;20030;-80
2021/11/27 17:55:20;;;;;;;20.08;3.92;;;6.30;99.90;;;;;;6033632;23;20023;-79
2021/11/27 17:57:48;;;;;;;18.98;3.15;;;6.30;99.90;;;;;;6060319;23;20023;-77
2021/11/27 18:00:16;;;;;;;14.23;2.58;;;6.30;99.90;;;;;;6059018;23;20032;-77
2021/11/27 18:02:43;;;;;;;22.08;4.13;;;6.20;99.90;;;;;;6033199;23;20030;-78
2021/11/27 18:05:10;;;;;;;16.60;3.10;;;6.20;99.90;;;;;;6058784;23;20067;-78
2021/11/27 18:07:40;;;;;;;18.25;2.45;;;6.20;99.90;;;;;;6059745;23;20023;-77
2021/11/27 18:10:09;;;;;;;16.98;3.17;;;6.20;99.90;;;;;;6059041;23;20026;-77
2021/11/27 18:12:37;;;;;;;;;;;6.20;99.90;;;;;;6034729;23;20022;-78
2021/11/27 18:15:06;;;;;;;18.58;3.75;;;6.20;99.90;;;;;;6059847;23;19922;-80
2021/11/27 18:17:33;;;;;;;22.65;2.95;;;6.20;99.90;;;;;;6058122;23;20027;-79
2021/11/27 18:20:00;;;;;;;15.27;2.80;;;6.20;99.90;;;;;;6060123;23;20027;-77
2021/11/27 18:22:27;;;;;;;23.65;3.08;;;6.20;99.90;;;;;;6058525;23;20027;-78
2021/11/27 18:27:34;;;;;;;;;;;6.20;99.90;;;;;;6059413;23;20027;-79
2021/11/27 18:30:01;;;;;;;19.10;3.17;;;6.20;99.90;;;;;;6059887;23;20310;-79
2021/11/27 18:32:29;;;;;;;16.20;3.65;;;6.20;99.90;;;;;;6059321;23;20027;-78
2021/11/27 18:34:56;;;;;;;16.25;2.47;;;6.20;99.90;;;;;;6059992;23;20027;-77
2021/11/27 18:37:23;;;;;;;24.70;3.92;;;6.30;99.90;;;;;;6058941;23;20497;-78
2021/11/27 18:39:53;;;;;;;15.27;3.42;;;6.30;99.90;;;;;;6033409;23;20023;-79
2021/11/27 18:42:20;;;;;;;13.48;3.15;;;6.30;99.90;;;;;;6057925;23;20026;-79
2021/11/27 18:44:48;;;;;;;18.15;2.53;;;6.30;99.90;;;;;;6057082;23;20735;-77
2021/11/27 18:47:15;;;;;;;17.63;2.20;;;6.30;99.90;;;;;;6055803;23;20513;-78
2021/11/27 18:49:44;;;;;;;16.48;2.67;;;6.20;99.90;;;;;;6032009;23;20033;-76
2021/11/27 18:52:12;;;;;;;16.33;2.72;;;6.30;99.90;;;;;;6055733;23;20545;-76
2021/11/27 18:54:39;;;;;;;14.75;3.00;;;6.30;99.90;;;;;;6056784;23;20027;-78
2021/11/27 18:57:09;;;;;;;19.83;2.97;;;6.30;99.90;;;;;;6056746;23;20501;-78
2021/11/27 18:59:36;;;;;;;15.82;3.03;;;6.20;99.90;;;;;;6057197;23;20067;-78
2021/11/27 19:02:04;;;;;;;15.82;2.72;;;6.20;99.90;;;;;;6056880;23;20038;-78
2021/11/27 19:04:32;;;;;;;18.40;2.10;;;6.20;99.90;;;;;;6057377;23;20022;-79
2021/11/27 19:06:59;;;;;;;15.52;2.40;;;6.10;99.90;;;;;;6057378;23;20023;-79
2021/11/27 19:09:27;;;;;;;10.43;1.80;;;6.10;99.90;;;;;;6057195;23;20030;-78
2021/11/27 19:11:54;;;;;;;11.13;2.73;;;6.10;99.90;;;;;;6058514;23;20054;-78
2021/11/27 19:14:25;;;;;;;10.00;1.65;;;6.10;99.90;;;;;;6057463;23;20027;-79
2021/11/27 19:16:54;;;;;;;12.23;2.53;;;6.10;99.90;;;;;;6053783;23;20141;-78
2021/11/27 19:19:21;;;;;;;;;;;6.00;99.90;;;;;;6050688;23;20476;-78
2021/11/27 19:21:48;;;;;;;16.73;2.00;;;6.00;99.90;;;;;;6054974;23;19921;-79
2021/11/27 19:24:15;;;;;;;9.65;1.73;;;6.00;99.90;;;;;;6055977;23;20034;-79
2021/11/27 19:26:42;;;;;;;8.80;1.55;;;6.00;99.90;;;;;;6057672;23;20027;-78
2021/11/27 19:29:11;;;;;;;14.40;1.75;;;5.90;99.90;;;;;;6056975;23;20544;-79
2021/11/27 19:31:39;;;;;;;13.05;2.33;;;5.90;99.90;;;;;;6057913;23;20022;-78
2021/11/27 19:34:07;;;;;;;12.63;1.98;;;5.90;99.90;;;;;;6057537;23;20034;-79
2021/11/27 19:36:36;;;;;;;13.82;2.47;;;5.90;99.90;;;;;;6055872;23;20109;-77
2021/11/27 19:39:04;;;;;;;10.88;2.70;;;5.80;99.90;;;;;;6057349;23;20096;-77
2021/11/27 19:41:34;;;;;;;13.73;4.43;;;5.90;99.90;;;;;;6031196;23;20465;-76
2021/11/27 19:44:01;;;;;;;12.25;3.08;;;5.90;99.90;;;;;;6055411;23;20030;-77
2021/11/27 19:46:29;;;;;;;9.38;1.77;;;5.80;99.90;;;;;;6029867;23;20023;-78
2021/11/27 19:48:57;;;;;;;6.25;2.05;;;5.90;99.90;;;;;;6055687;23;20564;-78
2021/11/27 19:51:25;;;;;;;14.18;2.30;;;5.80;99.90;;;;;;6055786;23;20078;-78
2021/11/27 19:53:52;;;;;;;15.50;3.05;;;5.80;99.90;;;;;;6057995;23;20478;-79
2021/11/27 19:56:19;;;;;;;12.35;2.10;;;5.80;99.90;;;;;;6057895;23;20031;-78
2021/11/27 19:58:47;;;;;;;11.95;2.00;;;5.80;99.90;;;;;;6058686;23;20015;-80
2021/11/27 20:01:21;;;;;;;15.00;2.20;;;5.80;99.90;;;;;;6032489;23;20481;-78
2021/11/27 20:03:51;;;;;;;11.10;1.98;;;5.80;99.90;;;;;;6058713;23;20051;-78
2021/11/27 20:06:18;;;;;;;10.43;2.03;;;5.80;99.90;;;;;;6053329;23;20031;-78
2021/11/27 20:08:46;;;;;;;7.82;1.67;;;5.80;99.90;;;;;;6057511;23;20082;-78